createdAt,value
2023-05-27T00:01:58.194Z,16.55
2023-05-27T00:05:00.378Z,16.62
2023-05-27T00:08:02.245Z,16.58
2023-05-27T00:11:03.842Z,16.60
2023-05-27T00:14:05.461Z,16.76
2023-05-27T00:17:07.196Z,16.72
2023-05-27T00:20:11.197Z,16.76
2023-05-27T00:23:12.834Z,16.84
2023-05-27T00:26:14.929Z,16.77
2023-05-27T00:29:19.949Z,16.86
2023-05-27T00:32:21.627Z,16.86
2023-05-27T00:35:23.298Z,16.79
2023-05-27T00:38:24.890Z,16.72
2023-05-27T00:41:27.585Z,16.69
2023-05-27T00:44:29.410Z,16.69
2023-05-27T00:47:34.163Z,16.59
2023-05-27T00:50:35.941Z,16.60
2023-05-27T00:53:42.489Z,16.53
2023-05-27T00:56:44.836Z,16.47
2023-05-27T00:59:46.635Z,16.38
2023-05-27T01:02:49.537Z,16.33
2023-05-27T01:06:01.562Z,16.31
2023-05-27T01:09:25.652Z,16.26
2023-05-27T01:12:42.058Z,16.31
2023-05-27T01:15:43.961Z,16.21
2023-05-27T01:18:46.238Z,16.14
2023-05-27T01:21:51.887Z,16.10
2023-05-27T01:24:53.786Z,16.07
2023-05-27T01:27:57.341Z,16.03
2023-05-27T01:31:10.791Z,15.98
2023-05-27T01:34:19.247Z,15.91
2023-05-27T01:37:24.501Z,15.85
2023-05-27T01:40:27.807Z,15.82
2023-05-27T01:43:30.060Z,15.83
2023-05-27T01:46:31.636Z,15.88
2023-05-27T01:49:33.342Z,15.89
2023-05-27T01:52:34.948Z,15.93
2023-05-27T01:55:36.613Z,15.89
2023-05-27T01:58:38.235Z,15.90
2023-05-27T02:01:41.038Z,15.79
2023-05-27T02:04:42.705Z,15.82
2023-05-27T02:07:44.361Z,15.76
2023-05-27T02:10:45.995Z,15.69
2023-05-27T02:13:47.685Z,15.58
2023-05-27T02:16:50.688Z,15.56
2023-05-27T02:19:52.482Z,15.59
2023-05-27T02:22:54.292Z,15.56
2023-05-27T02:25:56.323Z,15.46
2023-05-27T02:28:57.887Z,15.40
2023-05-27T02:31:59.517Z,15.40
2023-05-27T02:35:01.249Z,15.25
2023-05-27T02:38:02.968Z,15.20
2023-05-27T02:41:04.684Z,15.16
2023-05-27T02:44:06.697Z,15.04
2023-05-27T02:47:08.410Z,14.96
2023-05-27T02:50:10.414Z,14.96
2023-05-27T02:53:12.088Z,14.97
2023-05-27T02:56:13.699Z,14.94
2023-05-27T02:59:15.354Z,14.83
2023-05-27T03:02:17.080Z,14.76
2023-05-27T03:05:18.714Z,14.74
2023-05-27T03:08:20.390Z,14.65
2023-05-27T03:11:22.352Z,14.65
2023-05-27T03:14:24.183Z,14.61
2023-05-27T03:17:25.984Z,14.57
2023-05-27T03:20:27.585Z,14.46
2023-05-27T03:23:29.251Z,14.49
2023-05-27T03:26:31.284Z,14.46
2023-05-27T03:29:32.965Z,14.51
2023-05-27T03:32:35.056Z,14.42
2023-05-27T03:35:36.739Z,14.47
2023-05-27T03:38:38.391Z,14.53
2023-05-27T03:41:40.073Z,14.52
2023-05-27T03:44:41.693Z,14.60
2023-05-27T03:47:43.384Z,14.65
2023-05-27T03:50:44.970Z,14.73
2023-05-27T03:53:46.564Z,14.75
2023-05-27T03:56:48.203Z,14.82
2023-05-27T03:59:49.839Z,14.83
2023-05-27T04:02:51.607Z,14.81
2023-05-27T04:05:53.296Z,14.91
2023-05-27T04:08:54.957Z,14.99
2023-05-27T04:11:56.664Z,15.17
2023-05-27T04:14:58.909Z,15.25
2023-05-27T04:18:00.946Z,15.32
2023-05-27T04:21:02.610Z,15.42
2023-05-27T04:24:04.715Z,15.54
2023-05-27T04:27:06.444Z,15.56
2023-05-27T04:30:09.885Z,15.64
2023-05-27T04:33:12.518Z,15.66
2023-05-27T04:36:18.076Z,15.82
2023-05-27T04:39:19.877Z,15.79
2023-05-27T04:42:21.700Z,15.87
2023-05-27T04:45:23.365Z,16.10
2023-05-27T04:48:25.199Z,16.09
2023-05-27T04:51:27.190Z,16.24
2023-05-27T04:54:28.890Z,16.37
2023-05-27T04:57:30.562Z,16.47
2023-05-27T05:00:51.729Z,16.67
2023-05-27T05:04:03.755Z,16.74
2023-05-27T05:07:05.446Z,17.01
2023-05-27T05:10:08.741Z,17.18
2023-05-27T05:13:10.502Z,17.43
2023-05-27T05:16:12.216Z,17.55
2023-05-27T05:19:13.988Z,17.83
2023-05-27T05:22:15.580Z,18.06
2023-05-27T05:25:17.129Z,18.26
2023-05-27T05:28:18.713Z,18.60
2023-05-27T05:31:20.485Z,18.62
2023-05-27T05:34:22.104Z,18.98
2023-05-27T05:37:25.016Z,19.09
2023-05-27T05:40:26.726Z,19.27
2023-05-27T05:43:28.422Z,19.13
2023-05-27T05:46:30.264Z,19.18
2023-05-27T05:49:31.969Z,19.48
2023-05-27T05:52:33.599Z,19.73
2023-05-27T05:55:35.537Z,19.78
2023-05-27T05:58:37.215Z,19.67
2023-05-27T06:01:38.826Z,19.85
2023-05-27T06:04:40.476Z,19.66
2023-05-27T06:07:42.139Z,20.01
2023-05-27T06:10:43.791Z,19.98
2023-05-27T06:13:45.432Z,20.10
2023-05-27T06:16:47.027Z,20.25
2023-05-27T06:19:48.602Z,19.90
2023-05-27T06:22:50.282Z,20.06
2023-05-27T06:25:52.957Z,20.40
2023-05-27T06:28:54.627Z,20.48
2023-05-27T06:31:56.237Z,20.62
2023-05-27T06:34:57.920Z,20.82
2023-05-27T06:38:00.146Z,20.90
2023-05-27T06:41:01.822Z,21.00
2023-05-27T06:44:03.749Z,21.01
2023-05-27T06:47:05.706Z,21.07
2023-05-27T06:50:08.110Z,20.80
2023-05-27T06:53:11.616Z,20.66
2023-05-27T06:56:13.221Z,20.69
2023-05-27T06:59:14.781Z,20.66
2023-05-27T07:02:16.431Z,20.90
2023-05-27T07:05:18.018Z,21.07
2023-05-27T07:08:19.680Z,20.81
2023-05-27T07:11:21.658Z,20.71
2023-05-27T07:14:23.251Z,20.28
2023-05-27T07:17:24.912Z,20.13
2023-05-27T07:20:26.656Z,20.14
2023-05-27T07:23:28.351Z,20.21
2023-05-27T07:26:31.302Z,20.75
2023-05-27T07:29:32.953Z,21.59
2023-05-27T07:32:34.713Z,22.00
2023-05-27T07:35:36.367Z,22.44
2023-05-27T07:38:38.038Z,22.66
2023-05-27T07:41:39.833Z,23.22
2023-05-27T07:44:41.473Z,23.19
2023-05-27T07:47:43.168Z,23.15
2023-05-27T07:50:44.914Z,22.85
2023-05-27T07:53:46.566Z,23.46
2023-05-27T07:56:48.277Z,23.80
2023-05-27T07:59:50.412Z,24.13
2023-05-27T08:02:52.150Z,24.26
2023-05-27T08:05:55.294Z,24.51
2023-05-27T08:08:57.009Z,24.83
2023-05-27T08:11:58.832Z,25.11
2023-05-27T08:15:00.563Z,24.86
2023-05-27T08:18:02.880Z,23.79
2023-05-27T08:21:04.619Z,23.80
2023-05-27T08:24:06.505Z,24.11
2023-05-27T08:27:19.593Z,24.45
2023-05-27T08:30:21.352Z,24.71
2023-05-27T08:33:24.442Z,24.92
2023-05-27T08:36:26.147Z,25.02
2023-05-27T08:39:28.949Z,25.50
2023-05-27T08:42:30.717Z,25.31
2023-05-27T08:45:32.669Z,25.72
2023-05-27T08:48:34.429Z,26.03
2023-05-27T08:51:40.689Z,26.35
2023-05-27T08:54:43.330Z,26.00
2023-05-27T08:57:56.076Z,25.84
2023-05-27T09:00:58.246Z,26.35
2023-05-27T09:04:04.980Z,26.19
2023-05-27T09:07:07.077Z,26.35
2023-05-27T09:10:09.253Z,25.75
2023-05-27T09:13:10.920Z,25.72
2023-05-27T09:16:12.730Z,25.95
2023-05-27T09:19:18.804Z,25.88
2023-05-27T09:22:26.022Z,25.64
2023-05-27T09:25:29.109Z,25.47
2023-05-27T09:28:30.714Z,26.00
2023-05-27T09:31:32.416Z,25.20
2023-05-27T09:34:39.812Z,26.05
2023-05-27T09:37:42.151Z,26.85
2023-05-27T09:40:45.982Z,26.85
2023-05-27T09:43:55.044Z,27.67
2023-05-27T09:46:58.618Z,28.31
2023-05-27T09:50:00.878Z,28.30
2023-05-27T09:53:11.846Z,28.07
2023-05-27T09:56:14.531Z,27.49
2023-05-27T09:59:16.446Z,26.38
2023-05-27T10:02:21.338Z,25.82
2023-05-27T10:05:24.005Z,26.33
2023-05-27T10:08:27.100Z,26.44
2023-05-27T10:11:33.080Z,27.29
2023-05-27T10:14:35.069Z,27.15
2023-05-27T10:17:50.711Z,28.31
2023-05-27T10:20:52.935Z,28.79
2023-05-27T10:23:58.658Z,28.65
2023-05-27T10:27:07.088Z,30.13
2023-05-27T10:30:09.208Z,28.57
2023-05-27T10:33:11.085Z,29.32
2023-05-27T10:36:27.698Z,29.80
2023-05-27T10:39:30.184Z,30.14
2023-05-27T10:42:31.938Z,29.89
2023-05-27T10:45:35.047Z,30.46
2023-05-27T10:48:38.702Z,30.66
2023-05-27T10:51:41.066Z,30.98
2023-05-27T10:54:45.007Z,30.90
2023-05-27T10:57:48.063Z,30.80
2023-05-27T11:00:52.171Z,30.02
2023-05-27T11:03:55.353Z,31.02
2023-05-27T11:07:00.887Z,31.13
2023-05-27T11:10:06.639Z,31.85
2023-05-27T11:13:08.486Z,30.74
2023-05-27T11:16:10.942Z,31.49
2023-05-27T11:19:12.896Z,30.89
2023-05-27T11:22:15.988Z,30.92
2023-05-27T11:25:17.661Z,31.98
2023-05-27T11:28:19.269Z,31.79
2023-05-27T11:31:27.507Z,31.18
2023-05-27T11:34:29.343Z,31.78
2023-05-27T11:37:35.982Z,31.18
2023-05-27T11:40:40.400Z,29.70
2023-05-27T11:43:59.347Z,29.55
2023-05-27T11:47:01.842Z,29.42
2023-05-27T11:50:04.100Z,28.49
2023-05-27T11:53:05.736Z,28.65
2023-05-27T11:56:07.564Z,30.36
2023-05-27T11:59:09.251Z,30.08
2023-05-27T12:02:10.992Z,31.45
2023-05-27T12:05:18.493Z,30.75
2023-05-27T12:08:27.619Z,30.10
2023-05-27T12:11:29.264Z,31.17
2023-05-27T12:14:30.835Z,29.93
2023-05-27T12:17:32.436Z,28.61
2023-05-27T12:20:34.034Z,28.31
2023-05-27T12:23:35.857Z,28.84
2023-05-27T12:26:38.435Z,29.45
2023-05-27T12:29:40.012Z,30.50
2023-05-27T12:32:43.123Z,31.75
2023-05-27T12:35:45.051Z,32.57
2023-05-27T12:38:46.760Z,33.14
2023-05-27T12:41:48.741Z,29.72
2023-05-27T12:44:50.421Z,30.73
2023-05-27T12:47:52.123Z,31.60
2023-05-27T12:50:54.125Z,29.28
2023-05-27T12:53:55.692Z,28.25
2023-05-27T12:56:57.345Z,28.16
2023-05-27T12:59:58.910Z,27.33
2023-05-27T13:03:00.582Z,26.35
2023-05-27T13:06:02.263Z,26.11
2023-05-27T13:09:05.089Z,26.03
2023-05-27T13:12:07.254Z,25.61
2023-05-27T13:15:10.133Z,25.73
2023-05-27T13:18:11.856Z,25.99
2023-05-27T13:21:13.593Z,25.68
2023-05-27T13:24:15.192Z,26.31
2023-05-27T13:27:16.852Z,26.53
2023-05-27T13:30:18.755Z,28.59
2023-05-27T13:33:20.454Z,29.90
2023-05-27T13:36:22.062Z,30.88
2023-05-27T13:39:23.649Z,29.94
2023-05-27T13:42:25.722Z,28.61
2023-05-27T13:45:28.113Z,28.12
2023-05-27T13:48:30.778Z,27.74
2023-05-27T13:51:33.292Z,27.46
2023-05-27T13:54:34.999Z,27.00
2023-05-27T13:57:36.652Z,26.38
2023-05-27T14:00:38.350Z,27.03
2023-05-27T14:03:39.917Z,28.03
2023-05-27T14:06:41.773Z,28.68
2023-05-27T14:09:43.498Z,29.00
2023-05-27T14:12:45.084Z,27.85
2023-05-27T14:15:46.859Z,26.90
2023-05-27T14:18:48.731Z,28.15
2023-05-27T14:21:50.393Z,28.72
2023-05-27T14:24:52.214Z,29.56
2023-05-27T14:27:53.820Z,29.55
2023-05-27T14:30:55.621Z,29.42
2023-05-27T14:33:57.357Z,29.91
2023-05-27T14:36:59.029Z,29.56
2023-05-27T14:40:00.735Z,28.48
2023-05-27T14:43:02.862Z,26.72
2023-05-27T14:46:04.538Z,26.42
2023-05-27T14:49:06.467Z,26.28
2023-05-27T14:52:08.141Z,26.72
2023-05-27T14:55:10.486Z,26.47
2023-05-27T14:58:12.388Z,26.04
2023-05-27T15:01:15.985Z,25.27
2023-05-27T15:04:18.515Z,24.80
2023-05-27T15:07:23.523Z,24.57
2023-05-27T15:10:25.559Z,24.11
2023-05-27T15:13:27.286Z,24.18
2023-05-27T15:16:29.350Z,24.07
2023-05-27T15:19:31.462Z,23.85
2023-05-27T15:22:33.105Z,23.92
2023-05-27T15:25:37.253Z,23.85
2023-05-27T15:28:39.038Z,23.70
2023-05-27T15:31:40.883Z,23.80
2023-05-27T15:34:42.565Z,23.93
2023-05-27T15:37:44.223Z,23.89
2023-05-27T15:40:46.116Z,23.98
2023-05-27T15:43:47.791Z,24.53
2023-05-27T15:46:49.439Z,26.47
2023-05-27T15:49:51.246Z,28.11
2023-05-27T15:52:52.841Z,27.11
2023-05-27T15:55:54.550Z,25.84
2023-05-27T15:58:56.549Z,25.49
2023-05-27T16:01:58.186Z,24.87
2023-05-27T16:04:59.886Z,24.53
2023-05-27T16:08:01.498Z,26.43
2023-05-27T16:11:03.084Z,26.90
2023-05-27T16:14:04.722Z,27.89
2023-05-27T16:17:06.727Z,27.94
2023-05-27T16:20:08.697Z,28.97
2023-05-27T16:23:10.327Z,29.47
2023-05-27T16:26:11.925Z,28.49
2023-05-27T16:29:13.597Z,28.63
2023-05-27T16:32:15.622Z,28.28
2023-05-27T16:35:17.314Z,28.66
2023-05-27T16:38:20.062Z,29.29
2023-05-27T16:41:22.971Z,28.56
2023-05-27T16:44:24.559Z,27.91
2023-05-27T16:47:26.634Z,28.00
2023-05-27T16:50:28.462Z,27.03
2023-05-27T16:53:30.440Z,26.37
2023-05-27T16:56:32.100Z,25.19
2023-05-27T16:59:33.805Z,24.89
2023-05-27T17:02:36.196Z,24.96
2023-05-27T17:05:38.124Z,24.88
2023-05-27T17:08:39.765Z,24.46
2023-05-27T17:11:41.412Z,24.09
2023-05-27T17:14:44.674Z,23.94
2023-05-27T17:17:46.317Z,23.90
2023-05-27T17:20:48.202Z,23.79
2023-05-27T17:23:49.880Z,23.82
2023-05-27T17:26:51.619Z,23.73
2023-05-27T17:29:53.645Z,23.73
2023-05-27T17:32:55.593Z,23.70
2023-05-27T17:35:57.363Z,23.38
2023-05-27T17:38:59.736Z,23.46
2023-05-27T17:42:01.786Z,23.35
2023-05-27T17:45:03.637Z,23.26
2023-05-27T17:48:05.383Z,23.13
2023-05-27T17:51:07.433Z,23.04
2023-05-27T17:57:11.338Z,22.68
2023-05-27T18:00:13.714Z,22.61
2023-05-27T18:03:15.558Z,22.43
2023-05-27T18:06:17.291Z,22.32
2023-05-27T18:09:18.916Z,22.21
2023-05-27T18:12:20.574Z,22.10
2023-05-27T18:15:22.330Z,22.05
2023-05-27T18:18:24.240Z,21.93
2023-05-27T18:21:26.217Z,21.78
2023-05-27T18:24:27.889Z,21.73
2023-05-27T18:27:29.486Z,21.59
2023-05-27T18:30:31.315Z,21.43
2023-05-27T18:33:33.002Z,21.34
2023-05-27T18:36:34.742Z,21.19
2023-05-27T18:39:36.358Z,21.04
2023-05-27T18:42:39.110Z,20.86
2023-05-27T18:45:53.887Z,20.77
2023-05-27T18:48:55.580Z,20.62
2023-05-27T18:51:57.205Z,20.58
2023-05-27T18:54:58.794Z,20.52
2023-05-27T18:58:00.571Z,20.29
2023-05-27T19:01:02.298Z,20.30
2023-05-27T19:04:04.028Z,20.24
2023-05-27T19:07:05.888Z,20.18
2023-05-27T19:10:07.993Z,20.16
2023-05-27T19:13:09.910Z,20.05
2023-05-27T19:16:11.668Z,20.14
2023-05-27T19:19:13.305Z,20.14
2023-05-27T19:22:17.688Z,20.16
2023-05-27T19:25:19.422Z,20.11
2023-05-27T19:28:21.042Z,19.96
2023-05-27T19:31:22.775Z,19.81
2023-05-27T19:34:24.691Z,19.73
2023-05-27T19:37:26.419Z,19.65
2023-05-27T19:40:28.166Z,19.57
2023-05-27T19:43:30.088Z,19.40
2023-05-27T19:46:31.762Z,19.40
2023-05-27T19:49:33.451Z,19.51
2023-05-27T19:52:35.077Z,19.50
2023-05-27T19:55:36.966Z,19.53
2023-05-27T19:58:38.616Z,19.55
2023-05-27T20:01:40.441Z,19.47
2023-05-27T20:04:42.152Z,19.39
2023-05-27T20:07:43.927Z,19.30
2023-05-27T20:10:45.727Z,19.15
2023-05-27T20:13:47.374Z,19.11
2023-05-27T20:16:49.150Z,18.97
2023-05-27T20:19:51.098Z,18.70
2023-05-27T20:22:52.740Z,18.61
2023-05-27T20:25:54.591Z,18.42
2023-05-27T20:28:56.351Z,18.31
2023-05-27T20:31:57.983Z,18.20
2023-05-27T20:34:59.592Z,18.12
2023-05-27T20:38:01.189Z,17.98
2023-05-27T20:41:05.875Z,17.93
2023-05-27T20:44:08.170Z,17.87
2023-05-27T20:47:10.864Z,17.76
2023-05-27T20:50:12.659Z,17.57
2023-05-27T20:53:14.352Z,17.44
2023-05-27T20:56:16.134Z,17.35
2023-05-27T20:59:18.088Z,17.29
2023-05-27T21:02:19.801Z,17.13
2023-05-27T21:05:21.490Z,17.11
2023-05-27T21:08:23.104Z,17.02
2023-05-27T21:11:24.681Z,16.81
2023-05-27T21:14:26.355Z,16.74
2023-05-27T21:17:28.067Z,16.60
2023-05-27T21:20:30.000Z,16.59
2023-05-27T21:23:31.746Z,16.43
2023-05-27T21:26:34.009Z,16.50
2023-05-27T21:29:35.704Z,16.47
2023-05-27T21:32:37.562Z,16.36
2023-05-27T21:35:40.584Z,16.31
2023-05-27T21:38:45.356Z,16.26
2023-05-27T21:41:47.006Z,16.17
2023-05-27T21:44:50.958Z,16.06
2023-05-27T21:47:52.772Z,16.07
2023-05-27T21:50:54.526Z,15.96
2023-05-27T21:53:57.928Z,15.90
2023-05-27T21:56:59.636Z,15.75
2023-05-27T22:00:03.548Z,15.69
2023-05-27T22:03:06.204Z,15.59
2023-05-27T22:06:08.374Z,15.54
2023-05-27T22:09:12.097Z,15.43
2023-05-27T22:12:15.468Z,15.35
2023-05-27T22:15:17.209Z,15.32
2023-05-27T22:18:18.820Z,15.23
2023-05-27T22:21:28.704Z,15.14
2023-05-27T22:24:32.138Z,15.03
2023-05-27T22:27:34.629Z,15.00
2023-05-27T22:30:36.414Z,14.93
2023-05-27T22:33:38.071Z,14.91
2023-05-27T22:36:40.038Z,14.81
2023-05-27T22:39:41.811Z,14.80
2023-05-27T22:42:43.488Z,14.77
2023-05-27T22:45:45.089Z,14.69
2023-05-27T22:48:47.025Z,14.61
2023-05-27T22:51:48.681Z,14.59
2023-05-27T22:54:50.374Z,14.57
2023-05-27T22:57:51.956Z,14.69
2023-05-27T23:00:53.524Z,14.62
2023-05-27T23:03:55.306Z,14.61
2023-05-27T23:06:57.010Z,14.60
2023-05-27T23:09:58.770Z,14.55
2023-05-27T23:13:00.374Z,14.47
2023-05-27T23:16:08.792Z,14.59
2023-05-27T23:19:11.675Z,14.48
2023-05-27T23:22:13.339Z,14.41
2023-05-27T23:25:15.029Z,14.26
2023-05-27T23:28:16.643Z,14.18
2023-05-27T23:31:18.360Z,14.15
2023-05-27T23:34:20.662Z,14.04
2023-05-27T23:37:22.255Z,13.86
2023-05-27T23:40:23.896Z,13.74
2023-05-27T23:43:28.317Z,13.75
2023-05-27T23:46:29.992Z,13.70
2023-05-27T23:49:31.640Z,13.63
2023-05-27T23:52:33.209Z,13.61
2023-05-27T23:55:34.788Z,13.52
2023-05-27T23:58:36.390Z,13.45
